Time;durP1;ratioP1;P1;durP2;ratioP2;P2;SDS_P1;SDS_P2;PMS_P1;PMS_P2;Temp;Humidity;BMP_temperature;BMP_pressure;BME280_temperature;BME280_humidity;BME280_pressure;Samples;Min_cycle;Max_cycle;Signal;HPM_P1;HPM_P2
2021/08/23 00:01:01;;;;;;;7.47;2.65;;;14.40;99.90;;;;;;5073601;28;20048;-84
2021/08/23 00:03:27;;;;;;;6.93;2.75;;;14.40;99.90;;;;;;5061388;28;20040;-84
2021/08/23 00:05:53;;;;;;;7.10;3.03;;;14.40;99.90;;;;;;5084543;28;20173;-84
2021/08/23 00:08:19;;;;;;;7.65;3.10;;;14.40;99.90;;;;;;5103687;28;20043;-83
2021/08/23 00:10:44;;;;;;;5.88;2.50;;;14.40;99.90;;;;;;5091183;28;20023;-84
2021/08/23 00:13:10;;;;;;;7.90;3.45;;;14.40;99.90;;;;;;5107981;28;20227;-84
2021/08/23 00:15:37;;;;;;;4.82;2.70;;;14.40;99.90;;;;;;5101640;28;20380;-84
2021/08/23 00:18:03;;;;;;;6.45;3.45;;;14.50;99.90;;;;;;5107965;28;20027;-84
2021/08/23 00:20:42;;;;;;;6.78;2.83;;;14.40;99.90;;;;;;5099545;28;20027;-83
2021/08/23 00:23:11;;;;;;;7.47;2.95;;;14.40;99.90;;;;;;5080250;28;20055;-84
2021/08/23 00:25:37;;;;;;;6.10;3.03;;;14.40;99.90;;;;;;5075172;28;20039;-84
2021/08/23 00:28:03;;;;;;;6.43;2.88;;;14.50;99.90;;;;;;5075023;28;20021;-84
2021/08/23 00:30:29;;;;;;;6.78;2.88;;;14.50;99.90;;;;;;5077558;28;20074;-84
2021/08/23 00:32:55;;;;;;;6.47;2.90;;;14.50;99.90;;;;;;5059076;28;20036;-84
2021/08/23 00:35:21;;;;;;;5.60;2.67;;;14.50;99.90;;;;;;5075295;28;20442;-84
2021/08/23 00:37:46;;;;;;;6.63;2.60;;;14.50;99.90;;;;;;5075123;28;20029;-84
2021/08/23 00:40:13;;;;;;;6.70;2.63;;;14.50;99.90;;;;;;5088051;28;20404;-84
2021/08/23 00:42:39;;;;;;;7.60;2.55;;;14.50;99.90;;;;;;5096496;28;20032;-84
2021/08/23 00:45:06;;;;;;;7.78;3.30;;;14.50;99.90;;;;;;5077970;28;20388;-84
2021/08/23 00:47:32;;;;;;;4.72;2.65;;;14.50;99.90;;;;;;5096040;28;20035;-83
2021/08/23 00:49:57;;;;;;;5.18;2.80;;;14.60;99.90;;;;;;5077088;28;20043;-84
2021/08/23 00:52:24;;;;;;;5.85;2.53;;;14.60;99.90;;;;;;5096517;28;20059;-84
2021/08/23 00:54:49;;;;;;;6.05;2.88;;;14.70;99.90;;;;;;5096771;28;20137;-84
2021/08/23 00:57:15;;;;;;;5.68;2.58;;;14.60;99.90;;;;;;5096250;28;20094;-84
2021/08/23 00:59:42;;;;;;;4.65;2.58;;;14.70;99.90;;;;;;5076662;28;20043;-84
2021/08/23 01:02:07;;;;;;;6.63;2.75;;;14.70;99.90;;;;;;5096151;28;20032;-84
2021/08/23 01:05:08;;;;;;;7.93;2.75;;;14.70;99.90;;;;;;5066026;28;20127;-84
2021/08/23 01:07:54;;;;;;;5.47;2.90;;;14.70;99.90;;;;;;5059009;28;20083;-83
2021/08/23 01:10:25;;;;;;;7.78;2.90;;;14.70;99.90;;;;;;5076786;28;20024;-84
2021/08/23 01:12:52;;;;;;;8.70;2.55;;;14.70;99.90;;;;;;5096662;28;20031;-84
2021/08/23 01:15:18;;;;;;;5.03;2.53;;;14.70;99.90;;;;;;5095752;28;20424;-83
2021/08/23 01:17:43;;;;;;;6.53;2.40;;;14.80;99.90;;;;;;5082469;28;20039;-84
2021/08/23 01:20:10;;;;;;;4.97;2.60;;;14.80;99.90;;;;;;5075781;28;20025;-84
2021/08/23 01:22:45;;;;;;;3.60;2.00;;;14.80;99.90;;;;;;5076138;28;20043;-83
2021/08/23 01:25:13;;;;;;;6.28;2.63;;;14.80;99.90;;;;;;5077110;28;20055;-84
2021/08/23 01:27:43;;;;;;;5.88;2.30;;;14.80;99.90;;;;;;5082279;28;20054;-84
2021/08/23 01:30:11;;;;;;;6.65;2.45;;;14.80;99.90;;;;;;5076993;28;20017;-84
2021/08/23 01:32:39;;;;;;;5.32;2.25;;;14.80;99.90;;;;;;5068369;28;20020;-83
2021/08/23 01:35:06;;;;;;;7.25;2.90;;;14.90;99.90;;;;;;5095615;28;20028;-84
2021/08/23 01:37:35;;;;;;;7.57;2.47;;;14.90;99.90;;;;;;5095380;28;20035;-81
2021/08/23 01:40:01;;;;;;;8.55;2.35;;;14.90;99.90;;;;;;5093648;28;20039;-81
2021/08/23 01:42:26;;;;;;;3.88;2.17;;;14.90;99.90;;;;;;5075170;28;20047;-81
2021/08/23 01:44:52;;;;;;;5.53;2.40;;;14.90;99.90;;;;;;5073680;28;20055;-81
2021/08/23 01:47:18;;;;;;;8.90;2.35;;;14.80;99.90;;;;;;5092948;28;20057;-81
2021/08/23 01:49:43;;;;;;;4.07;2.13;;;14.80;99.90;;;;;;5093084;28;20423;-81
2021/08/23 01:52:13;;;;;;;8.20;2.35;;;14.70;99.90;;;;;;5092612;28;20097;-83
2021/08/23 01:54:42;;;;;;;4.65;2.30;;;14.70;99.90;;;;;;5075530;28;20444;-81
2021/08/23 01:57:14;;;;;;;5.43;2.50;;;14.80;99.90;;;;;;5075596;28;20536;-84
2021/08/23 01:59:40;;;;;;;5.75;2.40;;;14.80;99.90;;;;;;5093324;28;20503;-84
2021/08/23 02:02:06;;;;;;;4.97;2.22;;;14.80;99.90;;;;;;5074646;28;20071;-84
2021/08/23 02:04:31;;;;;;;4.82;2.28;;;14.80;99.90;;;;;;5093871;28;20503;-84
2021/08/23 02:06:57;;;;;;;6.47;2.35;;;14.80;99.90;;;;;;5094048;28;20115;-83
2021/08/23 02:09:22;;;;;;;7.10;2.38;;;14.80;99.90;;;;;;5075084;28;20531;-84
2021/08/23 02:11:48;;;;;;;4.68;2.15;;;14.80;99.90;;;;;;5077704;28;20435;-84
2021/08/23 02:14:13;;;;;;;5.88;2.17;;;14.90;99.90;;;;;;5074468;28;20032;-83
2021/08/23 02:16:41;;;;;;;4.43;2.50;;;14.90;99.90;;;;;;5074510;28;20048;-84
2021/08/23 02:19:07;;;;;;;6.88;2.60;;;14.80;99.90;;;;;;5056268;28;20035;-84
2021/08/23 02:21:54;;;;;;;4.40;2.10;;;14.80;99.90;;;;;;5074675;28;20036;-84
2021/08/23 02:24:21;;;;;;;7.05;2.50;;;14.80;99.90;;;;;;5060914;28;20036;-84
2021/08/23 02:26:47;;;;;;;4.13;2.20;;;14.90;99.90;;;;;;5061108;28;20024;-84
2021/08/23 02:29:13;;;;;;;6.07;2.13;;;14.90;99.90;;;;;;5078226;28;20028;-84
2021/08/23 02:31:38;;;;;;;6.93;3.50;;;14.90;99.90;;;;;;5099040;28;20024;-85
2021/08/23 02:34:04;;;;;;;5.30;2.20;;;14.90;99.90;;;;;;5081130;28;20119;-84
2021/08/23 02:36:30;;;;;;;5.40;1.98;;;14.90;99.90;;;;;;5070450;28;20031;-84
2021/08/23 02:38:56;;;;;;;5.75;1.98;;;14.90;99.90;;;;;;5077453;28;20024;-84
2021/08/23 02:41:22;;;;;;;5.63;1.92;;;14.90;99.90;;;;;;5076959;28;20082;-84
2021/08/23 02:43:47;;;;;;;4.60;2.10;;;14.90;99.90;;;;;;5078932;28;20035;-84
2021/08/23 02:46:13;;;;;;;5.75;2.35;;;14.90;99.90;;;;;;5078486;28;20029;-84
2021/08/23 02:48:38;;;;;;;5.97;2.33;;;14.90;99.90;;;;;;5060583;28;20032;-84
2021/08/23 02:51:04;;;;;;;6.72;2.15;;;14.90;99.90;;;;;;5080136;28;20028;-84
2021/08/23 02:53:29;;;;;;;5.32;2.08;;;14.90;99.90;;;;;;5078184;28;20039;-84
2021/08/23 02:55:55;;;;;;;5.57;2.20;;;14.90;99.90;;;;;;5078687;28;20032;-84
2021/08/23 02:58:21;;;;;;;5.20;2.13;;;14.90;99.90;;;;;;5079259;28;20032;-84
2021/08/23 03:00:46;;;;;;;7.20;2.17;;;14.90;99.90;;;;;;5078444;28;20578;-84
2021/08/23 03:03:12;;;;;;;4.28;1.90;;;14.90;99.90;;;;;;5079117;28;20064;-84
2021/08/23 03:05:37;;;;;;;5.35;2.28;;;14.90;99.90;;;;;;5076755;28;20119;-84
2021/08/23 03:08:03;;;;;;;6.47;2.33;;;14.90;99.90;;;;;;5078078;28;20043;-84
2021/08/23 03:10:29;;;;;;;5.80;1.90;;;14.90;99.90;;;;;;5079385;28;20106;-84
2021/08/23 03:12:54;;;;;;;6.28;2.08;;;14.90;99.90;;;;;;5080870;28;20043;-84
2021/08/23 03:15:21;;;;;;;5.40;2.17;;;14.80;99.90;;;;;;5098901;28;20027;-84
2021/08/23 03:17:47;;;;;;;4.30;2.08;;;14.80;99.90;;;;;;5079766;28;20032;-84
2021/08/23 03:20:13;;;;;;;4.15;2.20;;;14.80;99.90;;;;;;5079898;28;20036;-83
2021/08/23 03:22:38;;;;;;;4.97;2.22;;;14.80;99.90;;;;;;5098375;28;20032;-84
2021/08/23 03:25:04;;;;;;;4.47;2.10;;;14.90;99.90;;;;;;5080273;28;20035;-84
2021/08/23 03:27:30;;;;;;;3.92;2.22;;;14.80;99.90;;;;;;5080264;28;20024;-84
2021/08/23 03:29:55;;;;;;;5.10;2.35;;;14.70;99.90;;;;;;5097672;28;20040;-84
2021/08/23 03:32:21;;;;;;;6.65;2.47;;;14.70;99.90;;;;;;5079790;28;20391;-84
2021/08/23 03:34:47;;;;;;;4.05;1.83;;;14.70;99.90;;;;;;5098312;28;20024;-84
2021/08/23 03:37:13;;;;;;;5.13;2.15;;;14.60;99.90;;;;;;5073450;28;20040;-84
2021/08/23 03:39:38;;;;;;;4.15;2.08;;;14.60;99.90;;;;;;5098356;28;20027;-84
2021/08/23 03:42:04;;;;;;;5.25;2.28;;;14.60;99.90;;;;;;5098121;28;20028;-84
2021/08/23 03:44:29;;;;;;;6.32;2.33;;;14.60;99.90;;;;;;5096968;28;20020;-85
2021/08/23 03:46:55;;;;;;;4.50;1.85;;;14.60;99.90;;;;;;5079985;28;20028;-84
2021/08/23 03:49:21;;;;;;;7.07;2.25;;;14.60;99.90;;;;;;5097596;28;20057;-84
2021/08/23 03:51:47;;;;;;;4.75;1.92;;;14.60;99.90;;;;;;5079368;28;20024;-85
2021/08/23 03:54:13;;;;;;;5.28;1.83;;;14.70;99.90;;;;;;5097503;28;20034;-84
2021/08/23 03:56:39;;;;;;;5.93;2.08;;;14.70;99.90;;;;;;5080015;28;20036;-84
2021/08/23 03:59:05;;;;;;;7.32;1.83;;;14.70;99.90;;;;;;5097725;28;20553;-84
2021/08/23 04:01:30;;;;;;;6.18;2.55;;;14.70;99.90;;;;;;5096042;28;20027;-84
2021/08/23 04:03:56;;;;;;;5.43;1.98;;;14.70;99.90;;;;;;5077298;28;20091;-84
2021/08/23 04:06:22;;;;;;;5.32;1.90;;;14.70;99.90;;;;;;5077807;28;20032;-84
2021/08/23 04:08:47;;;;;;;4.32;2.30;;;14.60;99.90;;;;;;5058988;28;20029;-84
2021/08/23 04:11:14;;;;;;;5.55;1.90;;;14.70;99.90;;;;;;5073649;28;20029;-84
2021/08/23 04:13:40;;;;;;;5.13;2.03;;;14.70;99.90;;;;;;5077410;28;20024;-84
2021/08/23 04:16:13;;;;;;;6.38;2.30;;;14.70;99.90;;;;;;5077975;28;20029;-84
2021/08/23 04:18:39;;;;;;;3.70;2.00;;;14.70;99.90;;;;;;5077728;28;20055;-84
2021/08/23 04:21:05;;;;;;;6.55;2.05;;;14.70;99.90;;;;;;5097288;28;20492;-84
2021/08/23 04:23:30;;;;;;;5.47;2.10;;;14.60;99.90;;;;;;5079417;28;20024;-84
2021/08/23 04:25:56;;;;;;;4.05;2.28;;;14.60;99.90;;;;;;5097374;28;20044;-83
2021/08/23 04:28:22;;;;;;;4.40;2.00;;;14.60;99.90;;;;;;5077716;28;20059;-84
2021/08/23 04:30:47;;;;;;;4.65;2.00;;;14.60;99.90;;;;;;5097493;28;20028;-84
2021/08/23 04:33:13;;;;;;;5.22;2.30;;;14.60;99.90;;;;;;5097611;28;20764;-84
2021/08/23 04:35:38;;;;;;;4.75;1.60;;;14.60;99.90;;;;;;5078844;28;20046;-84
2021/08/23 04:38:04;;;;;;;5.07;2.10;;;14.60;99.90;;;;;;5083461;28;20028;-84
2021/08/23 04:40:29;;;;;;;7.03;2.00;;;14.60;99.90;;;;;;5076661;28;20021;-84
2021/08/23 04:42:55;;;;;;;4.20;1.73;;;14.60;99.90;;;;;;5076207;28;20174;-84
2021/08/23 04:45:21;;;;;;;5.93;2.15;;;14.70;99.90;;;;;;5058291;28;20024;-84
2021/08/23 04:47:47;;;;;;;8.00;2.50;;;14.70;99.90;;;;;;5077419;28;20036;-84
2021/08/23 04:50:12;;;;;;;8.95;2.33;;;14.70;99.90;;;;;;5074396;28;20033;-84
2021/08/23 04:52:45;;;;;;;5.05;1.92;;;14.80;99.90;;;;;;5074991;28;20028;-84
2021/08/23 04:55:12;;;;;;;4.88;1.83;;;14.80;99.90;;;;;;5074502;28;20404;-84
2021/08/23 04:57:37;;;;;;;3.63;1.80;;;14.80;99.90;;;;;;5114434;22;20523;-88
2021/08/23 05:00:07;;;;;;;5.97;2.25;;;14.90;99.90;;;;;;5101253;28;20103;-87
2021/08/23 05:02:32;;;;;;;4.10;2.10;;;14.90;99.90;;;;;;5124059;28;20551;-89
2021/08/23 05:04:58;;;;;;;7.35;2.05;;;14.90;99.90;;;;;;5104878;28;20028;-86
2021/08/23 05:07:24;;;;;;;3.40;1.88;;;14.90;99.90;;;;;;5123405;28;20322;-86
2021/08/23 05:09:49;;;;;;;4.75;1.63;;;14.90;99.90;;;;;;5107455;28;20055;-86
2021/08/23 05:12:15;;;;;;;7.82;2.08;;;14.90;99.90;;;;;;5108375;28;20165;-87
2021/08/23 05:14:41;;;;;;;4.80;2.20;;;15.10;99.90;;;;;;5107046;28;20039;-86
2021/08/23 05:17:06;;;;;;;8.27;1.83;;;15.20;99.90;;;;;;5106507;28;20077;-86
2021/08/23 05:19:32;;;;;;;4.28;1.45;;;14.90;99.90;;;;;;5123218;28;20024;-86
2021/08/23 05:21:58;;;;;;;6.80;2.20;;;14.90;99.90;;;;;;5107306;28;20032;-87
2021/08/23 05:24:23;;;;;;;5.00;2.08;;;14.90;99.90;;;;;;5085533;28;20024;-87
2021/08/23 05:26:49;;;;;;;6.90;2.33;;;14.90;99.90;;;;;;5091006;28;20027;-89
2021/08/23 05:29:14;;;;;;;3.75;1.83;;;14.90;99.90;;;;;;5095326;28;20042;-88
2021/08/23 05:31:40;;;;;;;5.13;2.00;;;14.90;99.90;;;;;;5106824;28;20020;-87
2021/08/23 05:34:06;;;;;;;8.48;2.10;;;14.90;99.90;;;;;;5122853;28;20039;-88
2021/08/23 05:36:31;;;;;;;3.55;1.52;;;15.10;99.90;;;;;;5106533;28;20032;-88
2021/08/23 05:38:57;;;;;;;4.03;1.90;;;14.90;99.90;;;;;;5105494;28;20036;-87
2021/08/23 05:41:22;;;;;;;6.25;1.98;;;15.00;99.90;;;;;;5121718;28;20043;-87
2021/08/23 05:43:48;;;;;;;3.80;1.92;;;15.00;99.90;;;;;;5122686;28;20024;-90
2021/08/23 05:46:18;;;;;;;4.32;1.92;;;15.10;99.90;;;;;;5101624;28;20059;-87
2021/08/23 05:48:44;;;;;;;5.68;1.92;;;15.10;99.90;;;;;;5083657;28;20020;-89
2021/08/23 05:51:14;;;;;;;3.97;2.00;;;15.10;99.90;;;;;;5084037;28;20024;-88
2021/08/23 05:53:39;;;;;;;5.57;1.98;;;15.20;99.90;;;;;;5085255;28;20036;-88
2021/08/23 05:56:05;;;;;;;5.32;2.30;;;15.20;99.90;;;;;;5082828;28;20059;-86
2021/08/23 05:58:31;;;;;;;3.78;1.70;;;15.20;99.90;;;;;;5085852;28;20052;-87
2021/08/23 06:00:56;;;;;;;4.22;1.80;;;15.20;99.90;;;;;;5085627;28;20072;-87
2021/08/23 06:03:22;;;;;;;4.93;1.70;;;15.30;99.90;;;;;;5113466;28;20032;-87
2021/08/23 06:05:47;;;;;;;6.53;1.90;;;15.30;99.90;;;;;;5103123;28;20031;-86
2021/08/23 06:08:13;;;;;;;7.35;2.17;;;15.30;99.90;;;;;;5102634;28;20021;-87
2021/08/23 06:10:39;;;;;;;5.97;1.98;;;15.30;99.90;;;;;;5101791;28;20020;-87
2021/08/23 06:13:04;;;;;;;4.40;1.90;;;15.30;99.90;;;;;;5097301;28;20415;-88
2021/08/23 06:15:30;;;;;;;6.07;1.95;;;15.30;99.90;;;;;;5083153;28;20024;-89
2021/08/23 06:17:57;;;;;;;4.30;2.10;;;15.40;99.90;;;;;;5104539;28;20097;-87
2021/08/23 06:20:23;;;;;;;3.65;1.80;;;15.50;99.90;;;;;;5109385;28;20055;-89
2021/08/23 06:22:50;;;;;;;5.65;2.05;;;15.60;99.90;;;;;;5117398;28;20447;-88
2021/08/23 06:25:15;;;;;;;9.75;2.05;;;15.60;99.90;;;;;;5100197;28;20020;-87
2021/08/23 06:27:41;;;;;;;4.28;2.08;;;15.50;99.90;;;;;;5093410;28;20016;-87
2021/08/23 06:30:08;;;;;;;4.85;2.03;;;15.50;99.90;;;;;;5106740;28;20063;-87
2021/08/23 06:32:34;;;;;;;5.07;2.13;;;15.30;99.90;;;;;;5095731;28;20036;-87
2021/08/23 06:35:00;;;;;;;4.60;2.10;;;15.30;99.90;;;;;;5086715;28;20035;-89
2021/08/23 06:37:25;;;;;;;5.97;2.08;;;15.40;99.90;;;;;;5099596;28;20032;-87
2021/08/23 06:39:51;;;;;;;4.93;2.10;;;15.50;99.90;;;;;;5111086;28;20149;-88
2021/08/23 06:42:17;;;;;;;4.55;2.17;;;15.40;99.90;;;;;;5103008;28;20032;-87
2021/08/23 06:44:42;;;;;;;5.10;2.20;;;15.60;99.90;;;;;;5083158;28;20020;-87
2021/08/23 06:47:08;;;;;;;6.18;2.05;;;15.50;99.90;;;;;;5082754;28;20442;-86
2021/08/23 06:49:34;;;;;;;4.97;2.13;;;15.60;99.90;;;;;;5098844;28;20021;-88
2021/08/23 06:51:59;;;;;;;8.18;2.40;;;15.70;99.90;;;;;;5107903;28;20024;-87
2021/08/23 06:54:25;;;;;;;6.82;1.95;;;15.90;99.90;;;;;;5111909;28;20032;-87
2021/08/23 06:56:50;;;;;;;6.55;2.40;;;16.00;99.90;;;;;;5132093;28;20499;-87
2021/08/23 06:59:16;;;;;;;3.92;2.05;;;16.00;99.90;;;;;;5103860;28;20032;-88
2021/08/23 07:01:42;;;;;;;5.57;2.40;;;16.00;99.90;;;;;;5097042;28;20105;-87
2021/08/23 07:04:08;;;;;;;11.90;2.30;;;16.10;99.90;;;;;;5099514;28;20028;-88
2021/08/23 07:06:34;;;;;;;7.28;2.33;;;16.10;99.90;;;;;;5102946;28;20032;-88
2021/08/23 07:09:00;;;;;;;6.43;2.22;;;16.10;99.90;;;;;;5120176;28;20024;-88
2021/08/23 07:11:26;;;;;;;4.22;2.10;;;16.10;99.90;;;;;;5097974;28;20032;-88
2021/08/23 07:13:51;;;;;;;4.88;2.20;;;16.10;99.90;;;;;;5102791;28;20023;-88
2021/08/23 07:16:17;;;;;;;6.18;2.10;;;16.10;99.90;;;;;;5103083;28;20020;-88
2021/08/23 07:18:42;;;;;;;7.03;2.00;;;16.10;99.90;;;;;;5085482;28;20028;-87
2021/08/23 07:21:08;;;;;;;5.78;2.22;;;16.20;99.90;;;;;;5085568;28;20072;-88
2021/08/23 07:23:34;;;;;;;5.20;1.98;;;16.20;99.90;;;;;;5085738;28;20020;-88
2021/08/23 07:25:59;;;;;;;7.20;2.63;;;16.30;99.90;;;;;;5103987;28;20033;-88
2021/08/23 07:28:26;;;;;;;5.05;1.92;;;16.20;99.90;;;;;;5106798;28;20043;-87
2021/08/23 07:30:51;;;;;;;4.93;2.05;;;16.30;99.90;;;;;;5106702;28;20040;-87
2021/08/23 07:33:17;;;;;;;4.82;2.10;;;16.30;99.90;;;;;;5107372;28;20093;-88
2021/08/23 07:35:43;;;;;;;8.38;2.15;;;16.30;99.90;;;;;;5101626;28;20024;-87
2021/08/23 07:38:08;;;;;;;5.82;2.30;;;16.40;99.90;;;;;;5105922;28;20028;-90
2021/08/23 07:40:34;;;;;;;5.57;2.20;;;16.50;99.90;;;;;;5106793;28;20028;-87
2021/08/23 07:43:00;;;;;;;4.75;2.38;;;16.60;99.90;;;;;;5105942;28;20028;-88
2021/08/23 07:45:26;;;;;;;5.43;2.30;;;16.60;99.90;;;;;;5085743;28;20017;-87
2021/08/23 07:47:52;;;;;;;4.95;1.75;;;16.80;99.90;;;;;;5084034;28;20029;-88
2021/08/23 07:50:17;;;;;;;5.45;1.65;;;16.80;99.90;;;;;;5076977;28;20169;-88
2021/08/23 07:52:43;;;;;;;10.43;2.28;;;16.90;99.90;;;;;;5077102;28;20492;-88
2021/08/23 07:55:10;;;;;;;4.78;2.00;;;16.90;99.90;;;;;;5098759;28;20032;-88
2021/08/23 07:57:44;;;;;;;7.25;2.00;;;17.00;99.90;;;;;;5095297;28;20040;-90
2021/08/23 08:00:10;;;;;;;5.75;2.30;;;17.20;99.90;;;;;;5111577;28;20412;-88
2021/08/23 08:02:36;;;;;;;6.60;2.05;;;17.40;99.90;;;;;;5089942;28;20103;-89
2021/08/23 08:05:01;;;;;;;4.13;2.10;;;17.50;99.90;;;;;;5102059;28;20052;-89
2021/08/23 08:07:27;;;;;;;6.45;2.47;;;17.40;99.90;;;;;;5116813;28;20045;-88
2021/08/23 08:09:52;;;;;;;5.90;1.75;;;17.30;99.90;;;;;;5112166;28;20116;-89
2021/08/23 08:12:18;;;;;;;6.10;2.00;;;17.30;99.90;;;;;;5083500;28;20020;-88
2021/08/23 08:14:43;;;;;;;4.55;1.90;;;17.30;99.90;;;;;;5082408;28;20031;-89
2021/08/23 08:17:09;;;;;;;6.05;2.20;;;17.20;99.90;;;;;;5084057;28;20500;-89
2021/08/23 08:19:36;;;;;;;4.95;1.58;;;17.20;99.90;;;;;;5113048;28;20081;-89
2021/08/23 08:22:05;;;;;;;4.53;2.03;;;17.20;99.90;;;;;;5112492;28;20043;-89
2021/08/23 08:24:31;;;;;;;7.70;2.08;;;17.20;99.90;;;;;;5113796;28;20177;-88
2021/08/23 08:26:57;;;;;;;4.15;1.70;;;17.30;99.90;;;;;;5098739;28;20035;-88
2021/08/23 08:29:22;;;;;;;8.60;1.85;;;17.20;99.90;;;;;;5115270;28;20048;-92
2021/08/23 08:31:48;;;;;;;3.92;1.95;;;17.30;99.90;;;;;;5113673;28;20036;-89
2021/08/23 08:34:14;;;;;;;7.13;2.03;;;17.40;99.90;;;;;;5097079;28;20476;-87
2021/08/23 08:36:39;;;;;;;4.47;1.92;;;17.40;99.90;;;;;;5103997;28;20024;-86
2021/08/23 08:39:05;;;;;;;4.53;1.65;;;17.60;99.90;;;;;;5085564;28;20028;-87
2021/08/23 08:41:31;;;;;;;5.97;1.73;;;17.60;99.90;;;;;;5086192;28;20031;-87
2021/08/23 08:44:00;;;;;;;4.13;1.98;;;17.70;99.90;;;;;;5084040;28;20053;-87
2021/08/23 08:46:25;;;;;;;6.63;1.73;;;17.80;99.90;;;;;;5087451;28;20020;-87
2021/08/23 08:48:51;;;;;;;5.32;1.88;;;17.90;99.90;;;;;;5103957;28;20036;-87
2021/08/23 08:51:18;;;;;;;4.22;1.77;;;17.90;99.90;;;;;;5104125;28;20029;-88
2021/08/23 08:53:44;;;;;;;4.70;1.70;;;18.10;99.90;;;;;;5103439;28;20108;-87
2021/08/23 08:56:09;;;;;;;5.38;1.90;;;18.20;99.90;;;;;;5098423;28;20037;-87
2021/08/23 08:58:36;;;;;;;4.00;1.80;;;18.30;99.90;;;;;;5082363;28;20043;-88
2021/08/23 09:01:04;;;;;;;6.13;1.70;;;18.40;99.90;;;;;;5083504;28;20033;-88
2021/08/23 09:03:30;;;;;;;6.50;2.05;;;18.50;99.90;;;;;;5097849;28;20514;-88
2021/08/23 09:06:14;;;;;;;4.55;1.77;;;18.40;99.90;;;;;;5110361;28;20024;-88
2021/08/23 09:08:43;;;;;;;5.63;2.22;;;18.40;99.90;;;;;;5078507;28;20066;-87
2021/08/23 09:11:10;;;;;;;5.75;1.75;;;18.40;99.90;;;;;;5081566;28;20070;-88
2021/08/23 09:13:36;;;;;;;3.50;1.60;;;18.40;99.90;;;;;;5083668;28;20034;-88
2021/08/23 09:16:02;;;;;;;6.20;1.83;;;18.40;99.90;;;;;;5083800;28;20029;-89
2021/08/23 09:18:28;;;;;;;3.60;1.70;;;18.30;99.90;;;;;;5084363;28;20067;-88
2021/08/23 09:21:02;;;;;;;4.05;1.60;;;18.40;99.90;;;;;;5087135;28;20100;-88
2021/08/23 09:23:42;;;;;;;3.65;1.70;;;18.30;99.90;;;;;;5121101;28;20028;-88
2021/08/23 09:26:09;;;;;;;4.10;1.83;;;18.30;99.90;;;;;;5121059;28;20028;-88
2021/08/23 09:28:35;;;;;;;5.47;1.98;;;18.30;99.90;;;;;;5103485;28;20042;-88
2021/08/23 09:31:01;;;;;;;5.80;2.13;;;18.30;99.90;;;;;;5113191;28;20028;-88
2021/08/23 09:33:27;;;;;;;5.32;1.90;;;18.30;99.90;;;;;;5104598;28;20031;-88
2021/08/23 09:35:53;;;;;;;3.83;1.67;;;18.50;99.90;;;;;;5104318;28;20039;-89
2021/08/23 09:38:18;;;;;;;6.38;1.90;;;18.40;99.90;;;;;;5101382;28;20048;-90
2021/08/23 09:40:46;;;;;;;4.68;1.70;;;18.30;99.90;;;;;;5084282;28;20110;-89
2021/08/23 09:43:15;;;;;;;5.20;2.22;;;18.50;99.90;;;;;;5079767;28;20028;-89
2021/08/23 09:45:44;;;;;;;5.95;1.63;;;18.70;99.90;;;;;;5084393;28;20102;-90
2021/08/23 09:48:10;;;;;;;5.95;1.80;;;18.70;99.90;;;;;;5093816;28;20123;-89
2021/08/23 09:50:44;;;;;;;7.00;1.88;;;18.80;99.90;;;;;;5100247;28;20056;-89
2021/08/23 09:53:20;;;;;;;5.60;1.90;;;19.10;99.90;;;;;;5083084;28;20028;-90
2021/08/23 09:55:52;;;;;;;4.15;1.55;;;19.40;99.90;;;;;;5100307;28;20032;-90
2021/08/23 09:58:18;;;;;;;;;;;19.70;99.90;;;;;;5083476;28;20185;-90
2021/08/23 10:00:44;;;;;;;4.97;1.60;;;20.10;99.90;;;;;;5100284;28;19948;-88
2021/08/23 10:03:21;;;;;;;4.75;2.05;;;20.00;99.90;;;;;;5097389;28;20024;-88
2021/08/23 10:05:48;;;;;;;4.70;1.45;;;20.20;99.90;;;;;;5110922;28;20021;-88
2021/08/23 10:08:20;;;;;;;7.72;1.80;;;20.10;99.90;;;;;;5082820;28;20027;-88
2021/08/23 10:10:46;;;;;;;4.95;1.65;;;19.80;99.90;;;;;;5083184;28;20366;-90
2021/08/23 10:13:13;;;;;;;5.00;1.70;;;19.70;99.90;;;;;;5084739;28;20024;-88
2021/08/23 10:15:39;;;;;;;6.70;2.05;;;19.90;99.90;;;;;;5121258;28;20043;-89
2021/08/23 10:18:06;;;;;;;3.08;1.48;;;20.00;99.90;;;;;;5120082;28;20040;-88
2021/08/23 10:20:32;;;;;;;5.63;1.85;;;20.00;99.90;;;;;;5120401;28;20024;-88
2021/08/23 10:23:01;;;;;;;4.60;1.38;;;19.90;99.90;;;;;;5096845;28;20029;-88
2021/08/23 10:25:27;;;;;;;5.15;1.88;;;19.90;99.90;;;;;;5081769;28;20174;-88
2021/08/23 10:28:04;;;;;;;5.00;1.40;;;19.70;99.90;;;;;;5080080;28;20020;-88
2021/08/23 10:30:29;;;;;;;5.30;1.50;;;19.90;99.90;;;;;;5082405;28;20027;-89
2021/08/23 10:32:55;;;;;;;3.72;1.20;;;20.00;99.90;;;;;;5093388;28;20087;-90
2021/08/23 10:35:23;;;;;;;3.35;1.33;;;20.00;99.90;;;;;;5104386;28;20028;-88
2021/08/23 10:37:50;;;;;;;6.72;1.90;;;20.00;99.90;;;;;;5103436;28;20024;-89
2021/08/23 10:40:33;;;;;;;5.18;2.10;;;19.90;99.90;;;;;;5103369;28;20032;-89
2021/08/23 10:43:12;;;;;;;4.32;2.60;;;19.80;99.90;;;;;;5102061;28;20066;-88
2021/08/23 10:45:38;;;;;;;6.28;2.70;;;19.60;99.90;;;;;;5103245;28;20063;-88
2021/08/23 10:48:16;;;;;;;6.43;3.00;;;19.20;99.90;;;;;;5084291;28;20021;-87
2021/08/23 10:50:55;;;;;;;8.35;3.50;;;19.00;99.90;;;;;;5103775;28;20025;-88
2021/08/23 10:53:36;;;;;;;7.90;3.40;;;18.70;99.90;;;;;;5101314;28;20024;-88
2021/08/23 10:56:12;;;;;;;7.28;3.00;;;18.50;99.90;;;;;;5099761;28;20105;-88
2021/08/23 10:58:38;;;;;;;6.75;3.17;;;18.40;99.90;;;;;;5117369;22;20056;-84
2021/08/23 11:01:24;;;;;;;5.38;3.33;;;18.40;99.90;;;;;;5107586;28;20101;-84
2021/08/23 11:04:04;;;;;;;6.38;3.17;;;18.40;99.90;;;;;;5088071;28;20036;-84
2021/08/23 11:06:32;;;;;;;7.35;3.20;;;18.30;99.90;;;;;;5097209;28;20131;-84
2021/08/23 11:09:09;;;;;;;6.22;3.10;;;18.30;99.90;;;;;;5079385;28;20036;-85
2021/08/23 11:11:36;;;;;;;5.85;3.28;;;18.40;99.90;;;;;;5098560;28;20468;-84
2021/08/23 11:14:14;;;;;;;5.32;2.95;;;18.40;99.90;;;;;;5085968;28;20033;-84
2021/08/23 11:16:40;;;;;;;7.63;3.40;;;18.50;99.90;;;;;;5064412;28;20028;-85
2021/08/23 11:19:06;;;;;;;7.35;3.10;;;18.60;99.90;;;;;;5081177;28;20036;-85
2021/08/23 11:21:31;;;;;;;6.40;2.88;;;18.70;99.90;;;;;;5071094;28;20119;-85
2021/08/23 11:24:05;;;;;;;5.90;3.15;;;18.60;99.90;;;;;;5120789;28;20059;-85
2021/08/23 11:26:31;;;;;;;6.10;2.92;;;18.90;99.90;;;;;;5075545;28;20040;-84
2021/08/23 11:29:09;;;;;;;7.65;2.50;;;18.90;99.90;;;;;;5082628;28;20033;-85
2021/08/23 11:31:35;;;;;;;5.53;2.30;;;18.90;99.90;;;;;;5070645;28;20028;-85
2021/08/23 11:34:04;;;;;;;4.20;1.80;;;18.80;99.90;;;;;;5094149;28;20553;-84
2021/08/23 11:36:33;;;;;;;3.80;1.83;;;18.80;99.90;;;;;;5093312;28;20081;-85
2021/08/23 11:39:09;;;;;;;5.40;1.90;;;18.70;99.90;;;;;;5072349;28;20496;-85
2021/08/23 11:41:34;;;;;;;4.63;1.85;;;18.70;99.90;;;;;;5096224;28;20027;-85
2021/08/23 11:44:03;;;;;;;4.90;2.22;;;18.80;99.90;;;;;;5094239;28;20024;-85
2021/08/23 11:46:29;;;;;;;4.53;1.80;;;19.00;99.90;;;;;;5082095;28;20024;-85
2021/08/23 11:48:55;;;;;;;3.28;1.42;;;19.10;99.90;;;;;;5091409;28;20028;-85
2021/08/23 11:51:29;;;;;;;3.78;1.63;;;19.40;99.90;;;;;;5088214;28;20081;-85
2021/08/23 11:53:55;;;;;;;5.50;1.52;;;19.80;99.90;;;;;;5100226;28;20016;-85
2021/08/23 11:56:20;;;;;;;5.25;1.75;;;20.20;99.90;;;;;;5101579;28;20030;-84
2021/08/23 11:58:46;;;;;;;3.78;1.38;;;20.70;99.90;;;;;;5080875;28;20040;-84
2021/08/23 12:01:15;;;;;;;4.25;1.25;;;20.90;99.90;;;;;;5096658;28;20036;-84
2021/08/23 12:03:42;;;;;;;2.90;1.30;;;20.80;99.90;;;;;;5095596;28;20064;-84
2021/08/23 12:06:12;;;;;;;4.20;1.25;;;20.70;99.90;;;;;;5100652;28;20016;-84
2021/08/23 12:08:40;;;;;;;4.22;1.55;;;20.70;99.90;;;;;;5098043;28;20107;-84
2021/08/23 12:11:17;;;;;;;3.08;1.25;;;20.70;99.90;;;;;;5099698;28;20051;-84
2021/08/23 12:13:50;;;;;;;3.35;1.20;;;20.60;99.90;;;;;;5099098;28;20016;-84
2021/08/23 12:16:17;;;;;;;3.78;1.25;;;20.60;99.90;;;;;;5097979;28;20032;-84
2021/08/23 12:18:48;;;;;;;2.60;1.13;;;20.80;99.90;;;;;;5118835;28;20020;-84
2021/08/23 12:21:31;;;;;;;2.83;1.25;;;21.20;99.90;;;;;;5119434;28;20111;-84
2021/08/23 12:23:56;;;;;;;3.47;1.17;;;21.60;99.90;;;;;;5100789;28;20032;-84
2021/08/23 12:26:35;;;;;;;3.03;1.17;;;21.80;99.90;;;;;;5115621;28;20549;-84
2021/08/23 12:29:10;;;;;;;2.65;0.95;;;21.90;99.90;;;;;;5096541;28;20361;-84
2021/08/23 12:31:38;;;;;;;3.13;1.00;;;21.40;99.90;;;;;;5099226;28;20084;-85
2021/08/23 12:34:14;;;;;;;2.83;1.15;;;21.60;99.90;;;;;;5098983;28;20028;-84
2021/08/23 12:36:41;;;;;;;2.90;1.05;;;22.20;99.90;;;;;;5099457;28;20027;-84
2021/08/23 12:39:06;;;;;;;2.95;1.20;;;22.60;99.90;;;;;;5100283;28;20039;-84
2021/08/23 12:41:32;;;;;;;2.80;1.05;;;22.80;99.90;;;;;;5119885;28;20016;-84
2021/08/23 12:43:58;;;;;;;2.22;0.95;;;22.60;99.90;;;;;;5100656;28;20123;-85
2021/08/23 12:46:23;;;;;;;4.40;1.30;;;22.50;99.90;;;;;;5083686;28;20035;-84
2021/08/23 12:48:49;;;;;;;2.28;1.00;;;22.60;99.90;;;;;;5097792;28;20024;-84